sensor_id;sensor_type;location;lat;lon;timestamp;P1;durP1;ratioP1;P2;durP2;ratioP2
26157;SDS011;67284;44.782;10.282;2023-04-24T00:01:30;4.45;;;3.38;;
26157;SDS011;67284;44.782;10.282;2023-04-24T00:06:23;7.18;;;4.13;;
26157;SDS011;67284;44.782;10.282;2023-04-24T00:11:15;3.60;;;3.30;;
26157;SDS011;67284;44.782;10.282;2023-04-24T00:16:06;9.65;;;4.70;;
26157;SDS011;67284;44.782;10.282;2023-04-24T00:20:58;9.70;;;5.10;;
26157;SDS011;67284;44.782;10.282;2023-04-24T00:25:51;10.30;;;6.38;;
26157;SDS011;67284;44.782;10.282;2023-04-24T00:30:43;9.65;;;5.45;;
26157;SDS011;67284;44.782;10.282;2023-04-24T00:35:34;13.60;;;7.18;;
26157;SDS011;67284;44.782;10.282;2023-04-24T00:40:26;10.55;;;6.10;;
26157;SDS011;67284;44.782;10.282;2023-04-24T00:45:19;11.32;;;6.00;;
26157;SDS011;67284;44.782;10.282;2023-04-24T00:50:11;8.57;;;6.18;;
26157;SDS011;67284;44.782;10.282;2023-04-24T00:55:05;7.53;;;5.68;;
26157;SDS011;67284;44.782;10.282;2023-04-24T00:59:58;10.90;;;5.80;;
26157;SDS011;67284;44.782;10.282;2023-04-24T01:04:50;8.93;;;5.60;;
26157;SDS011;67284;44.782;10.282;2023-04-24T01:09:42;7.78;;;6.03;;
26157;SDS011;67284;44.782;10.282;2023-04-24T01:14:39;8.98;;;5.78;;
26157;SDS011;67284;44.782;10.282;2023-04-24T01:19:32;12.55;;;6.13;;
26157;SDS011;67284;44.782;10.282;2023-04-24T01:24:23;11.73;;;5.93;;
26157;SDS011;67284;44.782;10.282;2023-04-24T01:29:15;5.60;;;4.93;;
26157;SDS011;67284;44.782;10.282;2023-04-24T01:34:07;7.93;;;5.50;;
26157;SDS011;67284;44.782;10.282;2023-04-24T01:38:59;9.50;;;5.00;;
26157;SDS011;67284;44.782;10.282;2023-04-24T01:43:52;9.60;;;5.82;;
26157;SDS011;67284;44.782;10.282;2023-04-24T01:48:45;10.40;;;5.55;;
26157;SDS011;67284;44.782;10.282;2023-04-24T01:53:37;10.75;;;6.97;;
26157;SDS011;67284;44.782;10.282;2023-04-24T01:58:29;6.80;;;6.10;;
26157;SDS011;67284;44.782;10.282;2023-04-24T02:03:21;10.18;;;7.00;;
26157;SDS011;67284;44.782;10.282;2023-04-24T02:08:13;9.35;;;7.60;;
26157;SDS011;67284;44.782;10.282;2023-04-24T02:13:04;10.80;;;6.57;;
26157;SDS011;67284;44.782;10.282;2023-04-24T02:17:56;7.78;;;6.97;;
26157;SDS011;67284;44.782;10.282;2023-04-24T02:22:48;9.40;;;7.22;;
26157;SDS011;67284;44.782;10.282;2023-04-24T02:27:42;10.55;;;7.50;;
26157;SDS011;67284;44.782;10.282;2023-04-24T02:32:33;10.05;;;7.78;;
26157;SDS011;67284;44.782;10.282;2023-04-24T02:37:25;11.02;;;7.65;;
26157;SDS011;67284;44.782;10.282;2023-04-24T02:42:17;9.88;;;7.15;;
26157;SDS011;67284;44.782;10.282;2023-04-24T02:47:09;8.45;;;7.28;;
26157;SDS011;67284;44.782;10.282;2023-04-24T02:52:01;8.45;;;6.72;;
26157;SDS011;67284;44.782;10.282;2023-04-24T02:56:53;8.02;;;6.93;;
26157;SDS011;67284;44.782;10.282;2023-04-24T03:01:45;9.20;;;6.95;;
26157;SDS011;67284;44.782;10.282;2023-04-24T03:06:36;10.68;;;7.40;;
26157;SDS011;67284;44.782;10.282;2023-04-24T03:11:28;11.80;;;7.95;;
26157;SDS011;67284;44.782;10.282;2023-04-24T03:16:20;10.27;;;7.38;;
26157;SDS011;67284;44.782;10.282;2023-04-24T03:21:12;8.02;;;7.03;;
26157;SDS011;67284;44.782;10.282;2023-04-24T03:26:05;9.02;;;7.47;;
26157;SDS011;67284;44.782;10.282;2023-04-24T03:30:59;9.20;;;7.40;;
26157;SDS011;67284;44.782;10.282;2023-04-24T03:35:56;12.15;;;8.68;;
26157;SDS011;67284;44.782;10.282;2023-04-24T03:40:49;11.32;;;8.20;;
26157;SDS011;67284;44.782;10.282;2023-04-24T03:45:55;10.27;;;7.95;;
26157;SDS011;67284;44.782;10.282;2023-04-24T03:50:48;11.68;;;8.18;;
26157;SDS011;67284;44.782;10.282;2023-04-24T03:55:40;12.05;;;8.77;;
26157;SDS011;67284;44.782;10.282;2023-04-24T04:00:33;10.15;;;8.02;;
26157;SDS011;67284;44.782;10.282;2023-04-24T04:05:45;14.10;;;8.75;;
26157;SDS011;67284;44.782;10.282;2023-04-24T04:10:37;10.60;;;7.78;;
26157;SDS011;67284;44.782;10.282;2023-04-24T04:15:29;11.10;;;8.43;;
26157;SDS011;67284;44.782;10.282;2023-04-24T04:20:21;10.35;;;8.15;;
26157;SDS011;67284;44.782;10.282;2023-04-24T04:25:13;11.88;;;7.95;;
26157;SDS011;67284;44.782;10.282;2023-04-24T04:30:07;15.82;;;9.25;;
26157;SDS011;67284;44.782;10.282;2023-04-24T04:35:11;12.25;;;8.75;;
26157;SDS011;67284;44.782;10.282;2023-04-24T04:40:04;17.45;;;9.65;;
26157;SDS011;67284;44.782;10.282;2023-04-24T04:45:12;10.50;;;8.48;;
26157;SDS011;67284;44.782;10.282;2023-04-24T04:50:23;12.23;;;9.18;;
26157;SDS011;67284;44.782;10.282;2023-04-24T04:55:20;13.60;;;10.60;;
26157;SDS011;67284;44.782;10.282;2023-04-24T05:00:35;11.32;;;9.32;;
26157;SDS011;67284;44.782;10.282;2023-04-24T05:05:40;14.63;;;10.13;;
26157;SDS011;67284;44.782;10.282;2023-04-24T05:10:36;16.08;;;11.77;;
26157;SDS011;67284;44.782;10.282;2023-04-24T05:15:28;17.77;;;10.60;;
26157;SDS011;67284;44.782;10.282;2023-04-24T05:20:24;14.23;;;11.63;;
26157;SDS011;67284;44.782;10.282;2023-04-24T05:25:17;16.00;;;11.90;;
26157;SDS011;67284;44.782;10.282;2023-04-24T05:30:16;17.70;;;12.68;;
26157;SDS011;67284;44.782;10.282;2023-04-24T05:35:08;16.15;;;13.07;;
26157;SDS011;67284;44.782;10.282;2023-04-24T05:40:00;17.13;;;13.00;;
26157;SDS011;67284;44.782;10.282;2023-04-24T05:44:53;17.23;;;12.60;;
26157;SDS011;67284;44.782;10.282;2023-04-24T05:49:48;15.38;;;12.55;;
26157;SDS011;67284;44.782;10.282;2023-04-24T05:54:40;17.95;;;13.38;;
26157;SDS011;67284;44.782;10.282;2023-04-24T05:59:36;19.30;;;13.88;;
26157;SDS011;67284;44.782;10.282;2023-04-24T06:04:31;16.50;;;12.90;;
26157;SDS011;67284;44.782;10.282;2023-04-24T06:09:24;17.98;;;13.18;;
26157;SDS011;67284;44.782;10.282;2023-04-24T06:14:16;18.25;;;13.70;;
26157;SDS011;67284;44.782;10.282;2023-04-24T06:19:31;19.05;;;13.68;;
26157;SDS011;67284;44.782;10.282;2023-04-24T06:24:26;18.55;;;15.10;;
26157;SDS011;67284;44.782;10.282;2023-04-24T06:29:19;20.60;;;15.15;;
26157;SDS011;67284;44.782;10.282;2023-04-24T06:34:11;24.48;;;16.38;;
26157;SDS011;67284;44.782;10.282;2023-04-24T06:39:04;20.88;;;15.40;;
26157;SDS011;67284;44.782;10.282;2023-04-24T06:43:56;16.67;;;13.85;;
26157;SDS011;67284;44.782;10.282;2023-04-24T06:48:48;22.77;;;17.08;;
26157;SDS011;67284;44.782;10.282;2023-04-24T06:53:40;21.20;;;15.60;;
26157;SDS011;67284;44.782;10.282;2023-04-24T06:58:32;22.95;;;17.08;;
26157;SDS011;67284;44.782;10.282;2023-04-24T07:03:24;24.55;;;17.20;;
26157;SDS011;67284;44.782;10.282;2023-04-24T07:08:16;21.13;;;15.90;;
26157;SDS011;67284;44.782;10.282;2023-04-24T07:13:09;18.55;;;13.77;;
26157;SDS011;67284;44.782;10.282;2023-04-24T07:18:00;20.10;;;14.10;;
26157;SDS011;67284;44.782;10.282;2023-04-24T07:22:56;19.52;;;13.13;;
26157;SDS011;67284;44.782;10.282;2023-04-24T07:27:47;17.30;;;12.80;;
26157;SDS011;67284;44.782;10.282;2023-04-24T07:32:40;15.35;;;12.15;;
26157;SDS011;67284;44.782;10.282;2023-04-24T07:37:32;16.63;;;11.27;;
26157;SDS011;67284;44.782;10.282;2023-04-24T07:42:24;14.48;;;12.18;;
26157;SDS011;67284;44.782;10.282;2023-04-24T07:47:15;20.55;;;13.38;;
26157;SDS011;67284;44.782;10.282;2023-04-24T07:52:07;17.45;;;13.57;;
26157;SDS011;67284;44.782;10.282;2023-04-24T07:56:59;19.20;;;13.95;;
26157;SDS011;67284;44.782;10.282;2023-04-24T08:01:52;20.42;;;13.32;;
26157;SDS011;67284;44.782;10.282;2023-04-24T08:06:43;21.13;;;14.25;;
26157;SDS011;67284;44.782;10.282;2023-04-24T08:11:36;23.10;;;14.85;;
26157;SDS011;67284;44.782;10.282;2023-04-24T08:16:28;17.52;;;13.63;;
26157;SDS011;67284;44.782;10.282;2023-04-24T08:21:20;15.13;;;11.85;;
26157;SDS011;67284;44.782;10.282;2023-04-24T08:26:12;23.25;;;13.25;;
26157;SDS011;67284;44.782;10.282;2023-04-24T08:31:05;16.88;;;11.80;;
26157;SDS011;67284;44.782;10.282;2023-04-24T08:35:56;18.42;;;11.80;;
26157;SDS011;67284;44.782;10.282;2023-04-24T08:40:48;14.75;;;9.70;;
26157;SDS011;67284;44.782;10.282;2023-04-24T08:45:41;15.48;;;9.93;;
26157;SDS011;67284;44.782;10.282;2023-04-24T08:50:32;16.08;;;9.68;;
26157;SDS011;67284;44.782;10.282;2023-04-24T08:55:26;15.25;;;10.45;;
26157;SDS011;67284;44.782;10.282;2023-04-24T09:00:19;15.32;;;9.68;;
26157;SDS011;67284;44.782;10.282;2023-04-24T09:05:12;16.42;;;11.30;;
26157;SDS011;67284;44.782;10.282;2023-04-24T09:10:05;12.80;;;9.63;;
26157;SDS011;67284;44.782;10.282;2023-04-24T09:14:58;13.98;;;10.23;;
26157;SDS011;67284;44.782;10.282;2023-04-24T09:19:50;14.10;;;10.70;;
26157;SDS011;67284;44.782;10.282;2023-04-24T09:24:43;15.57;;;11.63;;
26157;SDS011;67284;44.782;10.282;2023-04-24T09:29:36;15.20;;;11.25;;
26157;SDS011;67284;44.782;10.282;2023-04-24T09:34:28;16.33;;;10.75;;
26157;SDS011;67284;44.782;10.282;2023-04-24T09:39:20;15.15;;;11.27;;
26157;SDS011;67284;44.782;10.282;2023-04-24T09:44:16;13.10;;;10.43;;
26157;SDS011;67284;44.782;10.282;2023-04-24T09:49:09;12.55;;;9.38;;
26157;SDS011;67284;44.782;10.282;2023-04-24T09:54:04;13.40;;;10.15;;
26157;SDS011;67284;44.782;10.282;2023-04-24T09:59:06;12.32;;;8.27;;
26157;SDS011;67284;44.782;10.282;2023-04-24T10:03:58;14.40;;;8.32;;
26157;SDS011;67284;44.782;10.282;2023-04-24T10:08:50;9.68;;;7.47;;
26157;SDS011;67284;44.782;10.282;2023-04-24T10:13:42;8.65;;;7.72;;
26157;SDS011;67284;44.782;10.282;2023-04-24T10:18:34;11.30;;;8.50;;
26157;SDS011;67284;44.782;10.282;2023-04-24T10:23:27;11.13;;;8.57;;
26157;SDS011;67284;44.782;10.282;2023-04-24T10:28:19;11.18;;;7.90;;
26157;SDS011;67284;44.782;10.282;2023-04-24T10:33:12;9.55;;;7.85;;
26157;SDS011;67284;44.782;10.282;2023-04-24T10:38:06;13.02;;;8.88;;
26157;SDS011;67284;44.782;10.282;2023-04-24T10:43:04;9.80;;;7.82;;
26157;SDS011;67284;44.782;10.282;2023-04-24T10:48:01;11.30;;;8.55;;
26157;SDS011;67284;44.782;10.282;2023-04-24T10:53:05;11.32;;;8.55;;
26157;SDS011;67284;44.782;10.282;2023-04-24T10:58:01;9.80;;;7.88;;
26157;SDS011;67284;44.782;10.282;2023-04-24T11:02:55;10.50;;;9.13;;
26157;SDS011;67284;44.782;10.282;2023-04-24T11:13:04;11.40;;;10.23;;
26157;SDS011;67284;44.782;10.282;2023-04-24T11:17:56;11.18;;;9.50;;
26157;SDS011;67284;44.782;10.282;2023-04-24T11:22:49;11.75;;;10.25;;
26157;SDS011;67284;44.782;10.282;2023-04-24T11:27:46;11.68;;;9.88;;
26157;SDS011;67284;44.782;10.282;2023-04-24T11:32:40;11.10;;;9.23;;
26157;SDS011;67284;44.782;10.282;2023-04-24T11:37:41;12.23;;;10.93;;
26157;SDS011;67284;44.782;10.282;2023-04-24T11:42:37;14.05;;;12.50;;
26157;SDS011;67284;44.782;10.282;2023-04-24T11:47:30;16.20;;;12.75;;
26157;SDS011;67284;44.782;10.282;2023-04-24T11:52:28;14.32;;;12.10;;
26157;SDS011;67284;44.782;10.282;2023-04-24T11:57:21;14.15;;;12.32;;
26157;SDS011;67284;44.782;10.282;2023-04-24T12:02:21;12.27;;;10.98;;
26157;SDS011;67284;44.782;10.282;2023-04-24T12:07:17;13.63;;;11.65;;
26157;SDS011;67284;44.782;10.282;2023-04-24T12:12:10;12.65;;;9.98;;
26157;SDS011;67284;44.782;10.282;2023-04-24T12:17:03;16.55;;;10.05;;
26157;SDS011;67284;44.782;10.282;2023-04-24T12:21:59;10.57;;;9.40;;
26157;SDS011;67284;44.782;10.282;2023-04-24T12:26:55;11.07;;;9.00;;
26157;SDS011;67284;44.782;10.282;2023-04-24T12:31:47;10.77;;;9.65;;
26157;SDS011;67284;44.782;10.282;2023-04-24T12:36:40;10.45;;;8.52;;
26157;SDS011;67284;44.782;10.282;2023-04-24T12:41:31;8.73;;;7.22;;
26157;SDS011;67284;44.782;10.282;2023-04-24T12:46:23;8.73;;;7.50;;
26157;SDS011;67284;44.782;10.282;2023-04-24T12:51:16;9.43;;;7.63;;
26157;SDS011;67284;44.782;10.282;2023-04-24T12:56:08;7.82;;;7.03;;
26157;SDS011;67284;44.782;10.282;2023-04-24T13:01:00;7.35;;;6.65;;
26157;SDS011;67284;44.782;10.282;2023-04-24T13:05:52;9.27;;;6.25;;
26157;SDS011;67284;44.782;10.282;2023-04-24T13:10:44;6.93;;;6.05;;
26157;SDS011;67284;44.782;10.282;2023-04-24T13:15:36;11.02;;;6.85;;
26157;SDS011;67284;44.782;10.282;2023-04-24T13:20:28;7.65;;;6.80;;
26157;SDS011;67284;44.782;10.282;2023-04-24T13:25:20;7.65;;;6.85;;
26157;SDS011;67284;44.782;10.282;2023-04-24T13:30:12;6.50;;;5.90;;
26157;SDS011;67284;44.782;10.282;2023-04-24T13:35:04;6.88;;;6.13;;
26157;SDS011;67284;44.782;10.282;2023-04-24T13:39:56;6.85;;;5.03;;
26157;SDS011;67284;44.782;10.282;2023-04-24T13:44:48;7.03;;;6.32;;
26157;SDS011;67284;44.782;10.282;2023-04-24T13:49:40;7.97;;;5.65;;
26157;SDS011;67284;44.782;10.282;2023-04-24T13:54:32;6.97;;;6.28;;
26157;SDS011;67284;44.782;10.282;2023-04-24T13:59:24;6.05;;;5.45;;
26157;SDS011;67284;44.782;10.282;2023-04-24T14:04:16;3.90;;;2.90;;
26157;SDS011;67284;44.782;10.282;2023-04-24T14:09:08;5.28;;;3.42;;
26157;SDS011;67284;44.782;10.282;2023-04-24T14:14:00;4.70;;;3.22;;
26157;SDS011;67284;44.782;10.282;2023-04-24T14:18:52;4.50;;;4.10;;
26157;SDS011;67284;44.782;10.282;2023-04-24T14:23:44;5.20;;;3.72;;
26157;SDS011;67284;44.782;10.282;2023-04-24T14:28:37;7.22;;;3.75;;
26157;SDS011;67284;44.782;10.282;2023-04-24T14:33:29;4.80;;;4.38;;
26157;SDS011;67284;44.782;10.282;2023-04-24T14:38:21;4.38;;;3.33;;
26157;SDS011;67284;44.782;10.282;2023-04-24T14:43:13;1.80;;;1.63;;
26157;SDS011;67284;44.782;10.282;2023-04-24T14:48:05;2.63;;;2.40;;
26157;SDS011;67284;44.782;10.282;2023-04-24T14:52:57;3.00;;;2.08;;
26157;SDS011;67284;44.782;10.282;2023-04-24T14:57:49;2.83;;;1.25;;
26157;SDS011;67284;44.782;10.282;2023-04-24T15:02:41;1.67;;;1.45;;
26157;SDS011;67284;44.782;10.282;2023-04-24T15:07:33;0.80;;;0.75;;
26157;SDS011;67284;44.782;10.282;2023-04-24T15:12:27;3.55;;;1.15;;
26157;SDS011;67284;44.782;10.282;2023-04-24T15:17:20;1.50;;;1.02;;
26157;SDS011;67284;44.782;10.282;2023-04-24T15:22:12;1.35;;;1.05;;
26157;SDS011;67284;44.782;10.282;2023-04-24T15:27:10;2.13;;;0.80;;
26157;SDS011;67284;44.782;10.282;2023-04-24T15:32:02;3.78;;;1.02;;
26157;SDS011;67284;44.782;10.282;2023-04-24T15:36:54;3.67;;;1.20;;
26157;SDS011;67284;44.782;10.282;2023-04-24T15:41:46;2.80;;;1.25;;
26157;SDS011;67284;44.782;10.282;2023-04-24T15:46:38;3.65;;;1.25;;
26157;SDS011;67284;44.782;10.282;2023-04-24T15:51:30;1.27;;;0.90;;
26157;SDS011;67284;44.782;10.282;2023-04-24T15:56:22;1.45;;;1.15;;
26157;SDS011;67284;44.782;10.282;2023-04-24T16:01:23;2.40;;;1.00;;
26157;SDS011;67284;44.782;10.282;2023-04-24T16:06:15;4.45;;;1.42;;
26157;SDS011;67284;44.782;10.282;2023-04-24T16:11:07;4.30;;;1.40;;
26157;SDS011;67284;44.782;10.282;2023-04-24T16:15:59;2.35;;;1.13;;
26157;SDS011;67284;44.782;10.282;2023-04-24T16:20:51;1.90;;;1.20;;
26157;SDS011;67284;44.782;10.282;2023-04-24T16:25:43;2.13;;;1.40;;
26157;SDS011;67284;44.782;10.282;2023-04-24T16:30:34;3.80;;;1.75;;
26157;SDS011;67284;44.782;10.282;2023-04-24T16:35:27;2.10;;;1.15;;
26157;SDS011;67284;44.782;10.282;2023-04-24T16:40:19;2.70;;;1.58;;
26157;SDS011;67284;44.782;10.282;2023-04-24T16:45:11;2.85;;;1.25;;
26157;SDS011;67284;44.782;10.282;2023-04-24T16:50:03;6.97;;;2.67;;
26157;SDS011;67284;44.782;10.282;2023-04-24T16:54:55;4.07;;;1.55;;
26157;SDS011;67284;44.782;10.282;2023-04-24T16:59:47;4.32;;;2.08;;
26157;SDS011;67284;44.782;10.282;2023-04-24T17:04:38;4.85;;;1.95;;
26157;SDS011;67284;44.782;10.282;2023-04-24T17:09:30;4.78;;;2.13;;
26157;SDS011;67284;44.782;10.282;2023-04-24T17:14:22;3.38;;;2.00;;
26157;SDS011;67284;44.782;10.282;2023-04-24T17:19:16;4.03;;;1.85;;
26157;SDS011;67284;44.782;10.282;2023-04-24T17:24:08;9.30;;;3.03;;
26157;SDS011;67284;44.782;10.282;2023-04-24T17:29:00;5.38;;;1.98;;
26157;SDS011;67284;44.782;10.282;2023-04-24T17:33:52;3.38;;;1.90;;
26157;SDS011;67284;44.782;10.282;2023-04-24T17:38:44;2.92;;;1.67;;
26157;SDS011;67284;44.782;10.282;2023-04-24T17:43:36;3.22;;;1.80;;
26157;SDS011;67284;44.782;10.282;2023-04-24T17:48:28;6.30;;;2.38;;
26157;SDS011;67284;44.782;10.282;2023-04-24T17:53:20;3.25;;;1.45;;
26157;SDS011;67284;44.782;10.282;2023-04-24T17:58:13;6.47;;;1.98;;
26157;SDS011;67284;44.782;10.282;2023-04-24T18:03:06;10.90;;;3.15;;
26157;SDS011;67284;44.782;10.282;2023-04-24T18:07:59;7.22;;;2.55;;
26157;SDS011;67284;44.782;10.282;2023-04-24T18:12:52;3.22;;;2.17;;
26157;SDS011;67284;44.782;10.282;2023-04-24T18:17:44;2.45;;;1.88;;
26157;SDS011;67284;44.782;10.282;2023-04-24T18:22:36;4.32;;;2.10;;
26157;SDS011;67284;44.782;10.282;2023-04-24T18:27:29;2.80;;;1.80;;
26157;SDS011;67284;44.782;10.282;2023-04-24T18:32:24;5.65;;;2.00;;
26157;SDS011;67284;44.782;10.282;2023-04-24T18:37:17;4.45;;;1.88;;
26157;SDS011;67284;44.782;10.282;2023-04-24T18:42:09;3.85;;;1.80;;
26157;SDS011;67284;44.782;10.282;2023-04-24T18:47:01;4.00;;;2.10;;
26157;SDS011;67284;44.782;10.282;2023-04-24T18:51:53;5.43;;;1.92;;
26157;SDS011;67284;44.782;10.282;2023-04-24T18:56:45;5.55;;;2.28;;
26157;SDS011;67284;44.782;10.282;2023-04-24T19:01:37;9.82;;;2.80;;
26157;SDS011;67284;44.782;10.282;2023-04-24T19:06:29;10.70;;;2.78;;
26157;SDS011;67284;44.782;10.282;2023-04-24T19:11:23;4.55;;;2.25;;
26157;SDS011;67284;44.782;10.282;2023-04-24T19:16:15;4.63;;;2.25;;
26157;SDS011;67284;44.782;10.282;2023-04-24T19:21:08;4.53;;;2.40;;
26157;SDS011;67284;44.782;10.282;2023-04-24T19:25:59;4.18;;;2.20;;
26157;SDS011;67284;44.782;10.282;2023-04-24T19:30:51;5.65;;;1.80;;
26157;SDS011;67284;44.782;10.282;2023-04-24T19:35:43;4.43;;;2.53;;
26157;SDS011;67284;44.782;10.282;2023-04-24T19:40:35;3.42;;;1.98;;
26157;SDS011;67284;44.782;10.282;2023-04-24T19:45:27;3.05;;;2.10;;
26157;SDS011;67284;44.782;10.282;2023-04-24T19:50:19;7.43;;;2.13;;
26157;SDS011;67284;44.782;10.282;2023-04-24T19:55:10;5.15;;;2.08;;
26157;SDS011;67284;44.782;10.282;2023-04-24T20:00:02;6.45;;;2.25;;
26157;SDS011;67284;44.782;10.282;2023-04-24T20:04:55;7.53;;;2.60;;
26157;SDS011;67284;44.782;10.282;2023-04-24T20:09:47;8.77;;;2.85;;
26157;SDS011;67284;44.782;10.282;2023-04-24T20:14:39;4.40;;;2.60;;
26157;SDS011;67284;44.782;10.282;2023-04-24T20:19:31;4.10;;;2.40;;
26157;SDS011;67284;44.782;10.282;2023-04-24T20:24:22;5.30;;;2.30;;
26157;SDS011;67284;44.782;10.282;2023-04-24T20:29:14;6.30;;;2.83;;
26157;SDS011;67284;44.782;10.282;2023-04-24T20:34:06;4.50;;;2.53;;
26157;SDS011;67284;44.782;10.282;2023-04-24T20:38:58;6.80;;;2.58;;
26157;SDS011;67284;44.782;10.282;2023-04-24T20:43:51;2.95;;;2.17;;
26157;SDS011;67284;44.782;10.282;2023-04-24T20:48:43;4.63;;;2.55;;
26157;SDS011;67284;44.782;10.282;2023-04-24T20:53:35;5.25;;;2.70;;
26157;SDS011;67284;44.782;10.282;2023-04-24T20:58:26;4.95;;;2.80;;
26157;SDS011;67284;44.782;10.282;2023-04-24T21:03:18;5.30;;;3.05;;
26157;SDS011;67284;44.782;10.282;2023-04-24T21:08:10;5.18;;;3.45;;
26157;SDS011;67284;44.782;10.282;2023-04-24T21:13:02;3.53;;;2.30;;
26157;SDS011;67284;44.782;10.282;2023-04-24T21:17:54;3.92;;;2.45;;
26157;SDS011;67284;44.782;10.282;2023-04-24T21:22:47;6.22;;;2.30;;
26157;SDS011;67284;44.782;10.282;2023-04-24T21:27:39;3.40;;;2.60;;
26157;SDS011;67284;44.782;10.282;2023-04-24T21:32:31;3.30;;;2.58;;
26157;SDS011;67284;44.782;10.282;2023-04-24T21:37:26;4.70;;;2.53;;
26157;SDS011;67284;44.782;10.282;2023-04-24T21:42:18;4.93;;;3.03;;
26157;SDS011;67284;44.782;10.282;2023-04-24T21:47:10;3.65;;;2.50;;
26157;SDS011;67284;44.782;10.282;2023-04-24T21:52:02;2.85;;;2.55;;
26157;SDS011;67284;44.782;10.282;2023-04-24T21:56:54;3.85;;;3.15;;
26157;SDS011;67284;44.782;10.282;2023-04-24T22:01:46;4.75;;;2.78;;
26157;SDS011;67284;44.782;10.282;2023-04-24T22:06:38;4.63;;;2.60;;
26157;SDS011;67284;44.782;10.282;2023-04-24T22:11:29;3.53;;;2.92;;
26157;SDS011;67284;44.782;10.282;2023-04-24T22:16:22;3.20;;;2.90;;
26157;SDS011;67284;44.782;10.282;2023-04-24T22:21:14;4.18;;;2.85;;
26157;SDS011;67284;44.782;10.282;2023-04-24T22:26:06;5.25;;;3.22;;
26157;SDS011;67284;44.782;10.282;2023-04-24T22:30:58;6.25;;;3.28;;
26157;SDS011;67284;44.782;10.282;2023-04-24T22:35:50;7.05;;;3.00;;
26157;SDS011;67284;44.782;10.282;2023-04-24T22:40:42;3.97;;;3.22;;
26157;SDS011;67284;44.782;10.282;2023-04-24T22:45:34;4.07;;;3.03;;
26157;SDS011;67284;44.782;10.282;2023-04-24T22:50:26;3.38;;;2.40;;
26157;SDS011;67284;44.782;10.282;2023-04-24T22:55:19;5.47;;;3.70;;
26157;SDS011;67284;44.782;10.282;2023-04-24T23:00:11;5.13;;;3.50;;
26157;SDS011;67284;44.782;10.282;2023-04-24T23:05:04;4.15;;;2.83;;
26157;SDS011;67284;44.782;10.282;2023-04-24T23:09:57;5.22;;;3.05;;
26157;SDS011;67284;44.782;10.282;2023-04-24T23:14:49;4.43;;;3.28;;
26157;SDS011;67284;44.782;10.282;2023-04-24T23:19:41;3.17;;;2.78;;
26157;SDS011;67284;44.782;10.282;2023-04-24T23:24:33;3.42;;;2.78;;
26157;SDS011;67284;44.782;10.282;2023-04-24T23:29:24;5.03;;;2.83;;
26157;SDS011;67284;44.782;10.282;2023-04-24T23:34:16;4.20;;;2.38;;
26157;SDS011;67284;44.782;10.282;2023-04-24T23:39:10;4.45;;;2.78;;
26157;SDS011;67284;44.782;10.282;2023-04-24T23:44:02;4.82;;;2.60;;
26157;SDS011;67284;44.782;10.282;2023-04-24T23:48:54;5.57;;;2.35;;
26157;SDS011;67284;44.782;10.282;2023-04-24T23:53:46;3.45;;;2.33;;
26157;SDS011;67284;44.782;10.282;2023-04-24T23:58:38;2.70;;;1.80;;
